createdAt,value
2018-05-24T00:01:07.533Z,86.90
2018-05-24T00:03:35.044Z,87.20
2018-05-24T00:06:03.331Z,88.00
2018-05-24T00:08:30.843Z,87.90
2018-05-24T00:10:58.366Z,87.80
2018-05-24T00:13:25.893Z,87.60
2018-05-24T00:15:54.169Z,87.30
2018-05-24T00:18:22.453Z,87.20
2018-05-24T00:20:50.733Z,87.30
2018-05-24T00:23:19.019Z,87.30
2018-05-24T00:25:46.533Z,87.30
2018-05-24T00:28:14.052Z,87.30
2018-05-24T00:30:41.558Z,88.40
2018-05-24T00:33:09.078Z,88.00
2018-05-24T00:35:36.594Z,87.80
2018-05-24T00:38:04.874Z,87.30
2018-05-24T00:40:33.157Z,87.20
2018-05-24T00:43:01.438Z,87.30
2018-05-24T00:45:28.961Z,87.30
2018-05-24T00:47:57.246Z,87.00
2018-05-24T00:50:25.533Z,87.30
2018-05-24T00:52:53.813Z,86.90
2018-05-24T00:55:33.833Z,87.10
2018-05-24T00:58:01.377Z,87.20
2018-05-24T01:00:28.897Z,87.00
2018-05-24T01:02:56.406Z,86.80
2018-05-24T01:05:24.527Z,86.80
2018-05-24T01:07:52.117Z,86.70
2018-05-24T01:10:19.651Z,86.50
2018-05-24T01:12:47.164Z,86.70
2018-05-24T01:15:14.690Z,87.10
2018-05-24T01:17:42.217Z,87.60
2018-05-24T01:20:10.493Z,87.90
2018-05-24T01:22:38.781Z,88.10
2018-05-24T01:25:06.301Z,88.10
2018-05-24T01:27:33.822Z,87.90
2018-05-24T01:30:01.343Z,87.60
2018-05-24T01:32:28.885Z,87.30
2018-05-24T01:34:56.413Z,87.40
2018-05-24T01:37:35.977Z,87.30
2018-05-24T01:40:04.381Z,87.20
2018-05-24T01:42:32.657Z,87.40
2018-05-24T01:45:00.935Z,87.40
2018-05-24T01:47:29.223Z,87.70
2018-05-24T01:49:56.734Z,87.70
2018-05-24T01:52:24.253Z,87.70
2018-05-24T01:54:51.766Z,87.50
2018-05-24T01:57:20.802Z,87.60
2018-05-24T01:59:48.319Z,88.40
2018-05-24T02:02:16.595Z,87.60
2018-05-24T02:04:44.887Z,87.90
2018-05-24T02:07:13.169Z,88.80
2018-05-24T02:09:41.443Z,88.90
2018-05-24T02:12:09.714Z,88.70
2018-05-24T02:14:38.001Z,88.60
2018-05-24T02:17:05.529Z,88.40
2018-05-24T02:19:35.322Z,88.60
2018-05-24T02:22:02.829Z,88.50
2018-05-24T02:24:31.113Z,89.20
2018-05-24T02:26:59.397Z,89.50
2018-05-24T02:29:26.919Z,89.50
2018-05-24T02:31:54.446Z,89.90
2018-05-24T02:34:21.985Z,90.10
2018-05-24T02:36:49.507Z,90.30
2018-05-24T02:39:17.794Z,90.30
2018-05-24T02:41:46.091Z,90.20
2018-05-24T02:44:13.608Z,90.20
2018-05-24T02:46:41.890Z,89.80
2018-05-24T03:02:07.863Z,90.30
2018-05-24T03:04:35.385Z,90.20
2018-05-24T03:07:03.672Z,89.80
2018-05-24T03:09:31.190Z,89.80
2018-05-24T03:11:58.702Z,89.50
2018-05-24T03:14:26.253Z,89.30
2018-05-24T03:16:54.510Z,89.10
2018-05-24T03:19:22.781Z,89.30
2018-05-24T03:21:51.065Z,89.50
2018-05-24T03:24:19.345Z,89.60
2018-05-24T03:26:46.861Z,89.50
2018-05-24T03:29:14.397Z,89.70
2018-05-24T03:31:41.914Z,89.80
2018-05-24T03:34:10.193Z,89.90
2018-05-24T03:36:38.477Z,90.00
2018-05-24T03:39:06.025Z,90.00
2018-05-24T03:41:34.308Z,90.20
2018-05-24T03:44:02.595Z,90.20
2018-05-24T03:46:32.017Z,90.20
2018-05-24T03:48:59.545Z,90.30
2018-05-24T03:51:27.817Z,90.50
2018-05-24T03:53:56.103Z,90.50
2018-05-24T03:56:23.630Z,90.50
2018-05-24T03:58:51.146Z,90.40
2018-05-24T04:01:30.468Z,90.40
2018-05-24T04:04:09.846Z,90.40
2018-05-24T04:06:37.368Z,90.40
2018-05-24T04:09:04.879Z,90.40
2018-05-24T04:11:32.596Z,90.40
2018-05-24T04:14:00.109Z,90.30
2018-05-24T04:16:28.437Z,90.20
2018-05-24T04:18:55.944Z,90.20
2018-05-24T04:21:24.225Z,90.30
2018-05-24T04:23:52.514Z,90.30
2018-05-24T04:26:20.827Z,90.30
2018-05-24T04:28:48.335Z,90.40
2018-05-24T04:31:16.614Z,90.50
2018-05-24T04:33:44.914Z,90.60
2018-05-24T04:36:12.461Z,90.60
2018-05-24T04:38:40.741Z,90.70
2018-05-24T04:41:09.029Z,91.20
2018-05-24T04:43:36.677Z,90.80
2018-05-24T04:46:04.983Z,91.00
2018-05-24T04:48:32.493Z,91.00
2018-05-24T04:51:00.077Z,91.10
2018-05-24T04:53:28.358Z,90.90
2018-05-24T04:55:55.885Z,90.90
2018-05-24T04:58:23.394Z,90.90
2018-05-24T05:00:50.913Z,90.90
2018-05-24T05:03:19.200Z,90.70
2018-05-24T05:05:47.481Z,90.80
2018-05-24T05:08:15.761Z,90.70
2018-05-24T05:10:44.046Z,90.30
2018-05-24T05:13:11.549Z,90.20
2018-05-24T05:15:39.072Z,90.30
2018-05-24T05:18:06.585Z,89.40
2018-05-24T05:20:34.873Z,89.10
2018-05-24T05:23:03.220Z,88.60
2018-05-24T05:25:31.449Z,88.30
2018-05-24T05:27:58.962Z,88.40
2018-05-24T05:30:26.501Z,88.40
2018-05-24T05:32:54.014Z,88.20
2018-05-24T05:35:21.545Z,88.80
2018-05-24T05:37:49.060Z,88.60
2018-05-24T05:40:16.586Z,87.90
2018-05-24T05:42:44.870Z,86.90
2018-05-24T05:45:13.149Z,86.30
2018-05-24T05:47:41.443Z,86.10
2018-05-24T05:50:08.970Z,86.00
2018-05-24T05:52:37.261Z,85.50
2018-05-24T05:55:05.541Z,85.90
2018-05-24T05:57:33.157Z,85.80
2018-05-24T06:00:00.678Z,85.70
2018-05-24T06:02:28.186Z,85.30
2018-05-24T06:04:55.730Z,85.40
2018-05-24T06:07:23.251Z,86.10
2018-05-24T06:09:50.774Z,86.70
2018-05-24T06:12:19.070Z,84.80
2018-05-24T06:14:47.341Z,84.30
2018-05-24T06:17:15.618Z,83.30
2018-05-24T06:19:43.901Z,83.10
2018-05-24T06:22:12.196Z,82.00
2018-05-24T06:24:39.706Z,82.00
2018-05-24T06:27:07.264Z,81.30
2018-05-24T06:29:34.773Z,80.80
2018-05-24T06:32:02.285Z,80.00
2018-05-24T06:34:29.818Z,80.10
2018-05-24T06:36:57.350Z,78.70
2018-05-24T06:39:24.877Z,77.90
2018-05-24T06:41:53.204Z,78.70
2018-05-24T06:44:20.694Z,78.10
2018-05-24T06:46:48.218Z,76.60
2018-05-24T06:49:15.743Z,74.90
2018-05-24T06:51:44.014Z,74.80
2018-05-24T06:54:12.295Z,74.50
2018-05-24T06:56:40.570Z,74.30
2018-05-24T06:59:08.846Z,74.10
2018-05-24T07:01:37.169Z,75.30
2018-05-24T07:04:04.714Z,75.20
2018-05-24T07:06:32.254Z,74.30
2018-05-24T07:08:59.773Z,73.10
2018-05-24T07:11:27.301Z,71.10
2018-05-24T07:13:54.813Z,72.40
2018-05-24T07:16:23.085Z,72.80
2018-05-24T07:18:51.392Z,72.10
2018-05-24T07:21:18.913Z,72.00
2018-05-24T07:23:47.190Z,71.60
2018-05-24T07:26:15.479Z,72.60
2018-05-24T07:28:43.770Z,71.80
2018-05-24T07:31:11.282Z,71.80
2018-05-24T07:33:38.821Z,71.80
2018-05-24T07:36:06.329Z,71.30
2018-05-24T07:38:34.609Z,68.80
2018-05-24T07:41:02.910Z,68.40
2018-05-24T07:43:30.422Z,68.40
2018-05-24T07:45:57.933Z,68.20
2018-05-24T07:48:25.453Z,69.30
2018-05-24T07:50:53.732Z,69.20
2018-05-24T07:53:22.013Z,69.10
2018-05-24T07:55:50.293Z,66.60
2018-05-24T07:58:18.580Z,67.30
2018-05-24T08:00:46.090Z,67.20
2018-05-24T08:03:13.625Z,67.60
2018-05-24T08:05:41.150Z,67.50
2018-05-24T08:08:09.446Z,67.60
2018-05-24T08:10:36.969Z,67.60
2018-05-24T08:13:05.245Z,67.30
2018-05-24T08:15:33.525Z,68.60
2018-05-24T08:18:01.814Z,68.50
2018-05-24T08:20:29.334Z,68.50
2018-05-24T08:22:56.851Z,67.20
2018-05-24T08:25:24.372Z,66.90
2018-05-24T08:27:51.889Z,65.90
2018-05-24T08:30:19.405Z,67.30
2018-05-24T08:32:47.695Z,68.80
2018-05-24T08:35:15.256Z,68.80
2018-05-24T08:37:43.514Z,69.50
2018-05-24T08:40:11.801Z,68.00
2018-05-24T08:42:39.314Z,67.90
2018-05-24T08:45:06.841Z,67.00
2018-05-24T08:47:34.345Z,66.80
2018-05-24T08:50:01.864Z,67.00
2018-05-24T08:52:29.389Z,68.60
2018-05-24T08:54:57.814Z,67.30
2018-05-24T08:57:26.866Z,67.00
2018-05-24T08:59:55.153Z,65.90
2018-05-24T09:02:22.674Z,65.80
2018-05-24T09:04:50.189Z,66.70
2018-05-24T09:07:18.124Z,65.60
2018-05-24T09:09:46.410Z,65.10
2018-05-24T09:12:14.197Z,65.10
2018-05-24T09:14:41.717Z,65.10
2018-05-24T09:17:09.994Z,66.10
2018-05-24T09:19:38.281Z,65.80
2018-05-24T09:22:06.561Z,65.20
2018-05-24T09:24:34.093Z,65.10
2018-05-24T09:27:01.605Z,65.20
2018-05-24T09:29:33.393Z,64.90
2018-05-24T09:32:00.913Z,63.00
2018-05-24T09:34:28.430Z,62.80
2018-05-24T09:36:55.953Z,61.10
2018-05-24T09:39:23.469Z,60.90
2018-05-24T09:41:51.742Z,60.90
2018-05-24T09:44:20.035Z,60.90
2018-05-24T09:46:47.549Z,60.90
2018-05-24T09:49:15.369Z,61.00
2018-05-24T09:51:43.680Z,60.80
2018-05-24T09:54:11.614Z,60.40
2018-05-24T09:56:39.481Z,58.30
2018-05-24T09:59:07.348Z,57.80
2018-05-24T10:01:35.114Z,58.90
2018-05-24T10:04:02.980Z,59.20
2018-05-24T10:06:30.846Z,60.20
2018-05-24T10:08:58.712Z,60.20
2018-05-24T10:11:26.477Z,60.80
2018-05-24T10:13:54.277Z,59.60
2018-05-24T10:16:23.031Z,58.70
2018-05-24T10:18:51.614Z,57.90
2018-05-24T10:21:19.480Z,57.90
2018-05-24T10:23:47.383Z,57.00
2018-05-24T10:26:15.214Z,57.30
2018-05-24T10:28:43.082Z,56.70
2018-05-24T10:31:10.947Z,56.50
2018-05-24T10:33:38.711Z,57.70
2018-05-24T10:36:06.513Z,57.50
2018-05-24T10:38:34.448Z,58.90
2018-05-24T10:41:02.215Z,59.50
2018-05-24T10:43:30.017Z,56.80
2018-05-24T10:45:58.661Z,54.40
2018-05-24T10:48:26.435Z,54.40
2018-05-24T10:50:54.004Z,54.90
2018-05-24T10:53:21.485Z,54.80
2018-05-24T10:55:48.999Z,53.60
2018-05-24T10:58:16.533Z,52.60
2018-05-24T11:00:44.813Z,54.80
2018-05-24T11:03:13.114Z,54.30
2018-05-24T11:05:40.613Z,54.30
2018-05-24T11:08:08.137Z,53.40
2018-05-24T11:10:35.653Z,52.20
2018-05-24T11:13:04.276Z,53.90
2018-05-24T11:15:32.047Z,53.90
2018-05-24T11:17:59.746Z,52.60
2018-05-24T11:20:28.289Z,52.70
2018-05-24T11:22:56.153Z,52.70
2018-05-24T11:25:23.917Z,53.10
2018-05-24T11:27:51.716Z,53.30
2018-05-24T11:30:19.549Z,53.40
2018-05-24T11:32:47.313Z,53.90
2018-05-24T11:35:15.180Z,53.30
2018-05-24T11:37:42.984Z,53.50
2018-05-24T11:40:11.528Z,54.40
2018-05-24T11:42:39.100Z,54.20
2018-05-24T11:45:06.854Z,54.20
2018-05-24T11:47:34.654Z,54.80
2018-05-24T11:50:03.025Z,55.90
2018-05-24T11:52:30.862Z,55.00
2018-05-24T11:54:58.661Z,55.40
2018-05-24T11:57:26.412Z,55.90
2018-05-24T11:59:54.257Z,56.20
2018-05-24T12:02:22.126Z,56.70
2018-05-24T12:04:49.889Z,57.10
2018-05-24T12:07:17.878Z,57.00
2018-05-24T12:09:45.738Z,57.10
2018-05-24T12:12:14.417Z,56.30
2018-05-24T12:14:42.221Z,56.30
2018-05-24T12:17:10.861Z,55.90
2018-05-24T12:19:38.605Z,55.90
2018-05-24T12:22:06.427Z,55.50
2018-05-24T12:24:34.257Z,55.60
2018-05-24T12:27:02.061Z,56.00
2018-05-24T12:29:29.744Z,55.40
2018-05-24T12:31:58.371Z,55.10
2018-05-24T12:34:26.238Z,55.10
2018-05-24T12:36:54.025Z,54.40
2018-05-24T12:39:21.765Z,55.10
2018-05-24T12:41:49.603Z,55.30
2018-05-24T12:44:17.430Z,54.10
2018-05-24T12:46:45.367Z,53.90
2018-05-24T12:49:13.281Z,54.00
2018-05-24T12:51:42.022Z,53.50
2018-05-24T12:54:09.890Z,53.40
2018-05-24T12:56:37.756Z,52.70
2018-05-24T12:59:05.622Z,52.80
2018-05-24T13:01:33.427Z,53.90
2018-05-24T13:04:02.073Z,52.00
2018-05-24T13:06:29.940Z,52.00
2018-05-24T13:08:57.728Z,52.90
2018-05-24T13:11:25.673Z,54.30
2018-05-24T13:13:53.482Z,55.00
2018-05-24T13:16:22.431Z,57.20
2018-05-24T13:18:50.417Z,57.20
2018-05-24T13:21:19.593Z,58.20
2018-05-24T13:23:48.665Z,58.80
2018-05-24T13:26:16.561Z,59.20
2018-05-24T13:28:44.327Z,58.70
2018-05-24T13:31:12.128Z,58.90
2018-05-24T13:33:39.957Z,59.50
2018-05-24T13:36:07.825Z,65.30
2018-05-24T13:38:35.691Z,61.30
2018-05-24T13:41:03.664Z,59.60
2018-05-24T13:43:32.756Z,64.00
2018-05-24T13:46:00.623Z,67.20
2018-05-24T13:48:28.389Z,65.90
2018-05-24T13:50:56.109Z,67.60
2018-05-24T13:53:24.650Z,69.40
2018-05-24T13:55:52.602Z,69.30
2018-05-24T13:58:20.470Z,70.40
2018-05-24T14:00:49.193Z,72.90
2018-05-24T14:03:17.124Z,75.80
2018-05-24T14:05:44.991Z,79.90
2018-05-24T14:08:12.756Z,80.90
2018-05-24T14:10:40.521Z,82.90
2018-05-24T14:13:08.285Z,84.30
2018-05-24T14:15:36.151Z,84.90
2018-05-24T14:18:04.019Z,85.80
2018-05-24T14:20:31.749Z,86.30
2018-05-24T14:22:59.548Z,87.40
2018-05-24T14:25:27.343Z,87.90
2018-05-24T14:27:55.179Z,87.90
2018-05-24T14:30:22.944Z,88.50
2018-05-24T14:32:50.660Z,88.90
2018-05-24T14:35:19.122Z,90.10
2018-05-24T14:37:46.737Z,90.10
2018-05-24T14:40:14.549Z,90.00
2018-05-24T14:42:42.277Z,90.00
2018-05-24T14:45:10.004Z,90.00
2018-05-24T14:47:37.686Z,89.50
2018-05-24T14:50:05.571Z,89.60
2018-05-24T14:52:33.438Z,90.10
2018-05-24T14:55:01.226Z,90.00
2018-05-24T14:57:29.112Z,90.20
2018-05-24T14:59:56.855Z,90.40
2018-05-24T15:02:24.700Z,90.70
2018-05-24T15:04:52.379Z,90.70
2018-05-24T15:07:20.332Z,91.00
2018-05-24T15:09:48.141Z,90.90
2018-05-24T15:12:16.784Z,90.40
2018-05-24T15:14:44.649Z,90.40
2018-05-24T15:17:12.516Z,90.60
2018-05-24T15:19:40.307Z,90.50
2018-05-24T15:22:08.147Z,90.20
2018-05-24T15:24:35.898Z,90.30
2018-05-24T15:27:03.779Z,89.20
2018-05-24T15:29:31.534Z,88.90
2018-05-24T15:31:59.347Z,89.20
2018-05-24T15:34:27.930Z,89.00
2018-05-24T15:36:55.687Z,88.60
2018-05-24T15:39:23.420Z,89.10
2018-05-24T15:41:51.185Z,88.50
2018-05-24T15:44:18.913Z,88.10
2018-05-24T15:46:46.714Z,87.40
2018-05-24T15:49:14.581Z,87.50
2018-05-24T15:51:42.310Z,87.90
2018-05-24T15:54:10.340Z,88.20
2018-05-24T15:56:38.287Z,88.80
2018-05-24T15:59:06.151Z,89.10
2018-05-24T16:01:33.918Z,89.20
2018-05-24T16:04:01.782Z,88.60
2018-05-24T16:06:29.575Z,87.90
2018-05-24T16:08:57.413Z,87.10
2018-05-24T16:11:25.280Z,86.20
2018-05-24T16:13:53.147Z,81.80
2018-05-24T16:16:20.937Z,77.40
2018-05-24T16:18:48.881Z,72.90
2018-05-24T16:21:16.647Z,72.50
2018-05-24T16:23:44.512Z,72.00
2018-05-24T16:26:12.381Z,71.50
2018-05-24T16:28:40.144Z,70.20
2018-05-24T16:31:08.013Z,69.20
2018-05-24T16:33:35.877Z,69.80
2018-05-24T16:36:03.644Z,67.60
2018-05-24T16:38:31.511Z,64.50
2018-05-24T16:40:59.138Z,63.10
2018-05-24T16:43:27.439Z,64.10
2018-05-24T16:45:54.981Z,64.00
2018-05-24T16:48:23.257Z,62.70
2018-05-24T16:50:51.537Z,63.90
2018-05-24T16:53:19.835Z,65.40
2018-05-24T16:55:47.342Z,65.30
2018-05-24T16:58:14.854Z,65.60
2018-05-24T17:00:42.373Z,67.10
2018-05-24T17:03:10.662Z,72.00
2018-05-24T17:05:38.941Z,74.80
2018-05-24T17:08:07.222Z,77.70
2018-05-24T17:10:35.493Z,79.90
2018-05-24T17:13:03.778Z,81.20
2018-05-24T17:15:32.074Z,81.90
2018-05-24T17:17:59.593Z,81.90
2018-05-24T17:20:27.165Z,82.90
2018-05-24T17:22:55.462Z,84.00
2018-05-24T17:25:25.418Z,84.00
2018-05-24T17:27:52.921Z,84.80
2018-05-24T17:30:21.201Z,86.00
2018-05-24T17:32:48.721Z,86.10
2018-05-24T17:35:16.237Z,87.20
2018-05-24T17:37:43.749Z,88.00
2018-05-24T17:40:11.266Z,88.40
2018-05-24T17:42:38.797Z,88.80
2018-05-24T17:45:06.345Z,89.10
2018-05-24T17:47:34.618Z,90.00
2018-05-24T17:50:02.914Z,90.10
2018-05-24T17:52:30.433Z,90.10
2018-05-24T17:54:58.017Z,90.00
2018-05-24T17:57:26.326Z,90.30
2018-05-24T17:59:53.842Z,90.30
2018-05-24T18:02:22.129Z,90.80
2018-05-24T18:04:50.402Z,90.70
2018-05-24T18:07:18.686Z,91.00
2018-05-24T18:09:46.972Z,91.40
2018-05-24T18:12:14.489Z,91.40
2018-05-24T18:14:43.497Z,91.40
2018-05-24T18:17:11.018Z,91.30
2018-05-24T18:19:38.533Z,91.40
2018-05-24T18:22:06.819Z,90.80
2018-05-24T18:24:34.346Z,90.80
2018-05-24T18:27:01.863Z,91.00
2018-05-24T18:29:29.385Z,91.20
2018-05-24T18:31:57.661Z,91.20
2018-05-24T18:34:25.943Z,91.20
2018-05-24T18:36:54.221Z,91.20
2018-05-24T18:39:21.774Z,91.10
2018-05-24T18:41:50.146Z,91.30
2018-05-24T18:44:18.425Z,91.30
2018-05-24T18:46:46.702Z,91.60
2018-05-24T18:49:14.973Z,91.40
2018-05-24T18:51:43.245Z,91.60
2018-05-24T18:54:11.540Z,91.90
2018-05-24T18:56:39.812Z,92.00
2018-05-24T18:59:08.089Z,92.20
2018-05-24T19:01:36.377Z,92.30
2018-05-24T19:04:03.893Z,92.30
2018-05-24T19:06:32.934Z,92.70
2018-05-24T19:09:00.457Z,92.80
2018-05-24T19:11:27.981Z,92.90
2018-05-24T19:13:55.509Z,93.10
2018-05-24T19:16:23.046Z,93.40
2018-05-24T19:18:51.329Z,93.70
2018-05-24T19:21:19.642Z,93.80
2018-05-24T19:23:47.151Z,93.80
2018-05-24T19:26:14.678Z,94.30
2018-05-24T19:28:42.195Z,94.70
2018-05-24T19:31:09.705Z,95.00
2018-05-24T19:33:37.237Z,95.50
2018-05-24T19:36:04.767Z,96.00
2018-05-24T19:38:32.305Z,96.50
2018-05-24T19:41:00.589Z,96.60
2018-05-24T19:43:28.868Z,96.10
2018-05-24T19:45:57.172Z,95.90
2018-05-24T19:48:24.693Z,95.80
2018-05-24T19:50:52.221Z,95.80
2018-05-24T19:53:19.752Z,95.80
2018-05-24T19:55:47.291Z,95.60
2018-05-24T19:58:15.563Z,95.40
2018-05-24T20:00:43.862Z,95.30
2018-05-24T20:03:11.388Z,95.30
2018-05-24T20:05:39.681Z,95.10
2018-05-24T20:08:07.973Z,95.00
2018-05-24T20:10:35.493Z,95.00
2018-05-24T20:13:03.036Z,94.90
2018-05-24T20:15:30.541Z,94.90
2018-05-24T20:17:58.065Z,94.80
2018-05-24T20:20:25.577Z,94.80
2018-05-24T20:22:53.147Z,95.00
2018-05-24T20:25:20.658Z,95.10
2018-05-24T20:27:49.000Z,95.30
2018-05-24T20:30:16.531Z,95.30
2018-05-24T20:32:44.100Z,95.40
2018-05-24T20:35:12.439Z,95.60
2018-05-24T20:37:39.976Z,95.60
2018-05-24T20:40:07.490Z,95.80
2018-05-24T20:42:35.009Z,95.80
2018-05-24T20:45:03.294Z,96.00
2018-05-24T20:47:31.589Z,96.20
2018-05-24T20:49:59.125Z,96.20
2018-05-24T20:52:27.401Z,96.50
2018-05-24T20:54:55.689Z,96.80
2018-05-24T20:57:23.966Z,96.90
2018-05-24T20:59:51.477Z,96.90
2018-05-24T21:02:19.001Z,97.00
2018-05-24T21:04:46.517Z,96.90
2018-05-24T21:07:14.805Z,96.30
2018-05-24T21:09:43.101Z,96.10
2018-05-24T21:12:10.642Z,96.10
2018-05-24T21:14:38.926Z,96.40
2018-05-24T21:17:07.205Z,96.70
2018-05-24T21:19:34.721Z,96.70
2018-05-24T21:22:02.242Z,96.80
2018-05-24T21:24:29.753Z,96.80
2018-05-24T21:26:57.281Z,96.70
2018-05-24T21:29:24.797Z,96.50
2018-05-24T21:31:53.077Z,96.30
2018-05-24T21:34:20.601Z,96.30
2018-05-24T21:36:48.885Z,96.10
2018-05-24T21:39:16.402Z,96.10
2018-05-24T21:41:43.919Z,96.10
2018-05-24T21:44:12.201Z,96.40
2018-05-24T21:46:40.473Z,96.60
2018-05-24T21:49:08.758Z,96.60
2018-05-24T21:51:37.109Z,96.60
2018-05-24T21:54:04.631Z,96.60
2018-05-24T21:56:32.153Z,96.70
2018-05-24T21:59:00.433Z,96.80
2018-05-24T22:01:27.986Z,96.80
2018-05-24T22:03:56.269Z,97.00
2018-05-24T22:06:23.787Z,97.00
2018-05-24T22:08:53.177Z,97.20
2018-05-24T22:11:22.959Z,97.20
2018-05-24T22:13:50.928Z,97.20
2018-05-24T22:16:18.798Z,97.10
2018-05-24T22:18:46.768Z,97.10
2018-05-24T22:21:14.631Z,97.20
2018-05-24T22:23:42.499Z,97.40
2018-05-24T22:26:10.405Z,97.50
2018-05-24T22:28:38.334Z,97.50
2018-05-24T22:31:05.993Z,97.50
2018-05-24T22:33:33.710Z,97.50
2018-05-24T22:36:02.279Z,97.40
2018-05-24T22:38:30.109Z,97.40
2018-05-24T22:40:57.912Z,96.90
2018-05-24T22:43:26.559Z,96.60
2018-05-24T22:45:54.425Z,96.50
2018-05-24T22:48:22.180Z,96.50
2018-05-24T22:50:49.988Z,96.30
2018-05-24T22:53:18.641Z,96.00
2018-05-24T22:55:46.508Z,96.00
2018-05-24T22:58:14.312Z,95.80
2018-05-24T23:00:42.242Z,95.80
2018-05-24T23:03:10.047Z,95.80
2018-05-24T23:05:38.692Z,95.60
2018-05-24T23:08:06.662Z,95.60
2018-05-24T23:10:34.529Z,95.50
2018-05-24T23:13:02.396Z,95.50
2018-05-24T23:15:30.162Z,95.60
2018-05-24T23:17:58.027Z,95.70
2018-05-24T23:20:25.996Z,95.80
2018-05-24T23:22:53.862Z,95.90
2018-05-24T23:25:21.730Z,95.90
2018-05-24T23:27:49.524Z,95.90
2018-05-24T23:30:17.362Z,95.90
2018-05-24T23:32:45.126Z,95.90
2018-05-24T23:35:12.992Z,95.90
2018-05-24T23:37:40.814Z,95.90
2018-05-24T23:40:09.443Z,95.90
2018-05-24T23:42:37.209Z,95.90
2018-05-24T23:45:05.076Z,95.80
2018-05-24T23:47:32.972Z,95.70
2018-05-24T23:50:01.629Z,95.80
2018-05-24T23:52:29.422Z,95.80
2018-05-24T23:54:57.259Z,95.80
2018-05-24T23:57:25.126Z,96.00
2018-05-24T23:59:52.992Z,96.10
